createdAt,value
2023-04-27T00:00:18.473Z,11.68
2023-04-27T00:01:50.595Z,11.64
2023-04-27T00:03:23.208Z,11.64
2023-04-27T00:04:55.733Z,11.65
2023-04-27T00:06:28.157Z,11.63
2023-04-27T00:08:00.249Z,11.59
2023-04-27T00:09:32.433Z,11.66
2023-04-27T00:11:04.823Z,11.66
2023-04-27T00:12:37.009Z,11.59
2023-04-27T00:14:09.154Z,11.62
2023-04-27T00:15:44.335Z,11.60
2023-04-27T00:17:16.441Z,11.62
2023-04-27T00:18:48.548Z,11.54
2023-04-27T00:20:21.262Z,11.54
2023-04-27T00:21:53.420Z,11.59
2023-04-27T00:23:26.873Z,11.52
2023-04-27T00:24:58.752Z,11.63
2023-04-27T00:26:30.880Z,11.55
2023-04-27T00:28:03.079Z,11.50
2023-04-27T00:29:35.287Z,11.45
2023-04-27T00:31:07.490Z,11.39
2023-04-27T00:32:39.557Z,11.40
2023-04-27T00:34:11.791Z,11.39
2023-04-27T00:35:43.757Z,11.43
2023-04-27T00:37:15.783Z,11.43
2023-04-27T00:38:47.885Z,11.40
2023-04-27T00:40:21.767Z,11.39
2023-04-27T00:41:53.981Z,11.38
2023-04-27T00:43:26.198Z,11.39
2023-04-27T00:44:59.222Z,11.43
2023-04-27T00:46:31.743Z,11.40
2023-04-27T00:48:04.014Z,11.35
2023-04-27T00:49:36.263Z,11.35
2023-04-27T00:51:08.484Z,11.44
2023-04-27T00:52:40.817Z,11.33
2023-04-27T00:54:14.115Z,11.36
2023-04-27T00:55:46.150Z,11.37
2023-04-27T00:57:18.795Z,11.43
2023-04-27T00:58:51.108Z,11.40
2023-04-27T01:00:23.203Z,11.42
2023-04-27T01:01:55.486Z,11.39
2023-04-27T01:03:28.065Z,11.40
2023-04-27T01:05:00.680Z,11.43
2023-04-27T01:06:32.799Z,11.41
2023-04-27T01:08:06.095Z,11.40
2023-04-27T01:09:38.151Z,11.36
2023-04-27T01:11:10.286Z,11.40
2023-04-27T01:12:42.364Z,11.34
2023-04-27T01:14:14.659Z,11.37
2023-04-27T01:15:46.777Z,11.32
2023-04-27T01:17:18.904Z,11.37
2023-04-27T01:18:50.988Z,11.32
2023-04-27T01:20:23.177Z,11.33
2023-04-27T01:21:55.412Z,11.31
2023-04-27T01:23:27.650Z,11.32
2023-04-27T01:24:59.749Z,11.32
2023-04-27T01:26:32.084Z,11.36
2023-04-27T01:28:04.299Z,11.36
2023-04-27T01:29:36.468Z,11.30
2023-04-27T01:31:15.432Z,11.31
2023-04-27T01:32:47.553Z,11.30
2023-04-27T01:34:19.763Z,11.33
2023-04-27T01:35:52.046Z,11.34
2023-04-27T01:37:24.234Z,11.33
2023-04-27T01:38:56.377Z,11.29
2023-04-27T01:40:28.591Z,11.29
2023-04-27T01:42:00.798Z,11.30
2023-04-27T01:43:33.126Z,11.30
2023-04-27T01:47:29.314Z,11.29
2023-04-27T01:49:01.916Z,11.32
2023-04-27T01:50:33.995Z,11.31
2023-04-27T01:52:06.047Z,11.26
2023-04-27T01:53:38.368Z,11.26
2023-04-27T01:55:10.669Z,11.28
2023-04-27T01:56:42.773Z,11.27
2023-04-27T01:58:14.872Z,11.27
2023-04-27T01:59:47.005Z,11.24
2023-04-27T02:01:19.147Z,11.20
2023-04-27T02:02:53.985Z,11.18
2023-04-27T02:04:26.492Z,11.18
2023-04-27T02:05:58.690Z,11.18
2023-04-27T02:07:30.957Z,11.19
2023-04-27T02:09:03.179Z,11.17
2023-04-27T02:10:36.073Z,11.20
2023-04-27T02:12:08.204Z,11.16
2023-04-27T02:13:40.281Z,11.16
2023-04-27T02:15:12.430Z,11.08
2023-04-27T02:16:44.573Z,11.13
2023-04-27T02:18:16.868Z,11.16
2023-04-27T02:19:48.965Z,11.08
2023-04-27T02:21:21.517Z,11.12
2023-04-27T02:22:53.886Z,11.13
2023-04-27T02:24:26.048Z,11.11
2023-04-27T02:25:58.108Z,11.07
2023-04-27T02:27:30.252Z,11.09
2023-04-27T02:29:04.227Z,11.09
2023-04-27T02:30:37.638Z,11.08
2023-04-27T02:32:09.690Z,11.07
2023-04-27T02:33:42.501Z,11.11
2023-04-27T02:35:14.756Z,11.08
2023-04-27T02:38:18.687Z,11.06
2023-04-27T02:39:51.013Z,11.08
2023-04-27T02:41:23.196Z,11.03
2023-04-27T02:42:55.387Z,11.00
2023-04-27T02:44:27.510Z,11.01
2023-04-27T02:46:03.840Z,11.04
2023-04-27T02:47:36.223Z,11.03
2023-04-27T02:49:08.383Z,11.02
2023-04-27T02:50:45.155Z,11.04
2023-04-27T02:52:17.292Z,10.94
2023-04-27T02:53:49.527Z,10.93
2023-04-27T02:55:21.871Z,10.97
2023-04-27T02:56:53.955Z,10.92
2023-04-27T02:58:26.468Z,10.99
2023-04-27T02:59:58.766Z,10.98
2023-04-27T03:01:30.993Z,10.93
2023-04-27T03:03:03.437Z,10.94
2023-04-27T03:04:37.065Z,10.94
2023-04-27T03:06:09.189Z,10.94
2023-04-27T03:07:41.696Z,10.94
2023-04-27T03:09:14.398Z,10.92
2023-04-27T03:10:46.705Z,10.93
2023-04-27T03:12:18.907Z,10.92
2023-04-27T03:13:51.025Z,10.92
2023-04-27T03:15:23.142Z,10.87
2023-04-27T03:16:56.624Z,10.83
2023-04-27T03:18:28.587Z,10.90
2023-04-27T03:20:01.094Z,10.83
2023-04-27T03:21:33.626Z,10.86
2023-04-27T03:23:05.837Z,10.86
2023-04-27T03:24:38.231Z,10.79
2023-04-27T03:26:14.382Z,10.79
2023-04-27T03:27:46.452Z,10.73
2023-04-27T03:29:19.268Z,10.77
2023-04-27T03:30:51.644Z,10.72
2023-04-27T03:32:23.790Z,10.69
2023-04-27T03:33:56.063Z,10.67
2023-04-27T03:35:28.156Z,10.60
2023-04-27T03:37:01.835Z,10.60
2023-04-27T03:38:34.299Z,10.63
2023-04-27T03:40:08.079Z,10.65
2023-04-27T03:41:40.167Z,10.61
2023-04-27T03:43:12.219Z,10.60
2023-04-27T03:44:44.323Z,10.53
2023-04-27T03:46:16.727Z,10.57
2023-04-27T03:47:49.165Z,10.59
2023-04-27T03:49:21.495Z,10.58
2023-04-27T03:50:53.624Z,10.57
2023-04-27T03:52:25.904Z,10.57
2023-04-27T03:53:58.090Z,10.55
2023-04-27T03:55:30.235Z,10.51
2023-04-27T03:57:03.069Z,10.53
2023-04-27T03:58:35.192Z,10.50
2023-04-27T04:00:12.005Z,10.51
2023-04-27T04:01:44.157Z,10.51
2023-04-27T04:03:17.075Z,10.52
2023-04-27T04:04:49.516Z,10.52
2023-04-27T04:06:21.810Z,10.55
2023-04-27T04:07:54.094Z,10.58
2023-04-27T04:09:26.317Z,10.57
2023-04-27T04:10:58.450Z,10.58
2023-04-27T04:12:30.834Z,10.61
2023-04-27T04:14:03.053Z,10.59
2023-04-27T04:15:35.273Z,10.62
2023-04-27T04:17:11.307Z,10.64
2023-04-27T04:18:43.457Z,10.60
2023-04-27T04:20:15.756Z,10.60
2023-04-27T04:21:48.044Z,10.57
2023-04-27T04:23:20.189Z,10.57
2023-04-27T04:24:54.766Z,10.58
2023-04-27T04:26:30.383Z,10.53
2023-04-27T04:28:02.585Z,10.59
2023-04-27T04:29:34.637Z,10.63
2023-04-27T04:31:08.647Z,10.65
2023-04-27T04:32:40.867Z,10.60
2023-04-27T04:34:13.384Z,10.59
2023-04-27T04:35:45.538Z,10.60
2023-04-27T04:37:18.981Z,10.66
2023-04-27T04:38:50.941Z,10.73
2023-04-27T04:40:23.089Z,10.68
2023-04-27T04:41:55.240Z,10.67
2023-04-27T04:43:27.619Z,10.69
2023-04-27T04:44:59.824Z,10.72
2023-04-27T04:46:32.045Z,10.72
2023-04-27T04:48:04.636Z,10.72
2023-04-27T04:49:37.289Z,10.76
2023-04-27T04:51:09.448Z,10.73
2023-04-27T04:52:41.744Z,10.77
2023-04-27T04:54:14.239Z,10.76
2023-04-27T04:55:46.342Z,10.77
2023-04-27T04:57:18.526Z,10.79
2023-04-27T04:58:50.660Z,10.79
2023-04-27T05:00:22.830Z,10.65
2023-04-27T05:01:56.350Z,10.73
2023-04-27T05:03:28.874Z,10.82
2023-04-27T05:05:01.278Z,10.82
2023-04-27T05:06:33.678Z,10.81
2023-04-27T05:08:05.923Z,10.84
2023-04-27T05:09:38.152Z,10.86
2023-04-27T05:11:10.421Z,10.87
2023-04-27T05:12:44.832Z,10.89
2023-04-27T05:14:17.028Z,10.90
2023-04-27T05:15:49.187Z,10.94
2023-04-27T05:17:21.469Z,10.97
2023-04-27T05:18:56.373Z,11.02
2023-04-27T05:20:28.501Z,11.00
2023-04-27T05:22:00.733Z,11.02
2023-04-27T05:23:32.868Z,10.97
2023-04-27T05:25:05.349Z,11.00
2023-04-27T05:26:37.486Z,10.99
2023-04-27T05:28:10.384Z,11.03
2023-04-27T05:29:42.590Z,11.02
2023-04-27T05:31:14.746Z,11.02
2023-04-27T05:32:46.874Z,11.03
2023-04-27T05:34:19.224Z,11.00
2023-04-27T05:35:51.386Z,11.03
2023-04-27T05:37:26.676Z,11.05
2023-04-27T05:38:58.948Z,11.06
2023-04-27T05:40:31.172Z,11.11
2023-04-27T05:42:03.470Z,11.11
2023-04-27T05:43:35.950Z,11.16
2023-04-27T05:45:08.620Z,11.20
2023-04-27T05:46:40.958Z,11.24
2023-04-27T05:48:14.589Z,11.26
2023-04-27T05:49:51.928Z,11.32
2023-04-27T05:51:24.078Z,11.29
2023-04-27T05:52:56.270Z,11.28
2023-04-27T05:54:28.379Z,11.27
2023-04-27T05:56:01.697Z,11.30
2023-04-27T05:57:33.952Z,11.29
2023-04-27T05:59:06.141Z,11.35
2023-04-27T06:00:38.789Z,11.36
2023-04-27T06:02:11.013Z,11.37
2023-04-27T06:03:43.471Z,11.42
2023-04-27T06:05:15.838Z,11.44
2023-04-27T06:06:47.974Z,11.47
2023-04-27T06:08:20.072Z,11.45
2023-04-27T06:09:52.202Z,11.49
2023-04-27T06:11:24.260Z,11.54
2023-04-27T06:12:56.355Z,11.49
2023-04-27T06:14:29.243Z,11.53
2023-04-27T06:16:02.014Z,11.58
2023-04-27T06:17:38.281Z,11.61
2023-04-27T06:19:10.537Z,11.67
2023-04-27T06:20:43.386Z,11.67
2023-04-27T06:22:15.465Z,11.72
2023-04-27T06:23:47.581Z,11.76
2023-04-27T06:25:19.992Z,11.79
2023-04-27T06:26:52.366Z,11.78
2023-04-27T06:28:24.525Z,11.79
2023-04-27T06:29:56.622Z,11.79
2023-04-27T06:31:28.743Z,11.81
2023-04-27T06:33:01.139Z,11.83
2023-04-27T06:34:34.613Z,11.94
2023-04-27T06:36:07.117Z,11.97
2023-04-27T06:37:39.648Z,11.97
2023-04-27T06:39:12.003Z,12.02
2023-04-27T06:40:45.306Z,11.93
2023-04-27T06:42:17.665Z,11.94
2023-04-27T06:43:49.868Z,11.95
2023-04-27T06:45:22.270Z,11.97
2023-04-27T06:46:54.447Z,12.01
2023-04-27T06:48:26.590Z,12.02
2023-04-27T06:49:58.800Z,11.98
2023-04-27T06:51:30.920Z,12.08
2023-04-27T06:53:03.168Z,12.08
2023-04-27T06:54:35.468Z,12.09
2023-04-27T06:56:12.082Z,12.14
2023-04-27T06:57:47.073Z,12.15
2023-04-27T06:59:19.196Z,12.12
2023-04-27T07:00:52.116Z,12.11
2023-04-27T07:02:25.687Z,11.99
2023-04-27T07:03:58.088Z,12.05
2023-04-27T07:05:30.326Z,12.09
2023-04-27T07:07:02.497Z,12.18
2023-04-27T07:08:34.593Z,12.17
2023-04-27T07:10:07.663Z,12.21
2023-04-27T07:11:39.772Z,12.25
2023-04-27T07:13:12.630Z,12.28
2023-04-27T07:14:46.213Z,12.17
2023-04-27T07:16:19.621Z,12.19
2023-04-27T07:17:52.178Z,12.31
2023-04-27T07:19:24.420Z,12.24
2023-04-27T07:20:58.361Z,12.28
2023-04-27T07:22:30.542Z,12.28
2023-04-27T07:24:02.856Z,12.30
2023-04-27T07:25:35.950Z,12.35
2023-04-27T07:27:08.580Z,12.37
2023-04-27T07:28:40.772Z,12.41
2023-04-27T07:30:14.631Z,12.41
2023-04-27T07:31:46.931Z,12.35
2023-04-27T07:33:19.239Z,12.39
2023-04-27T07:34:54.446Z,12.34
2023-04-27T07:36:28.043Z,12.37
2023-04-27T07:38:02.077Z,12.38
2023-04-27T07:39:34.529Z,12.30
2023-04-27T07:41:07.631Z,12.34
2023-04-27T07:42:42.238Z,12.34
2023-04-27T07:44:14.326Z,12.40
2023-04-27T07:45:46.494Z,12.45
2023-04-27T07:47:19.405Z,12.47
2023-04-27T07:48:52.750Z,12.48
2023-04-27T07:50:26.192Z,12.53
2023-04-27T07:51:59.021Z,12.66
2023-04-27T07:53:31.617Z,12.67
2023-04-27T07:55:04.968Z,12.70
2023-04-27T07:56:37.072Z,12.78
2023-04-27T07:58:09.393Z,12.84
2023-04-27T07:59:42.262Z,12.88
2023-04-27T08:01:14.416Z,12.82
2023-04-27T08:02:46.794Z,12.86
2023-04-27T08:04:19.371Z,12.89
2023-04-27T08:05:51.848Z,12.88
2023-04-27T08:07:24.323Z,12.87
2023-04-27T08:08:58.929Z,12.84
2023-04-27T08:10:31.175Z,12.88
2023-04-27T08:12:03.368Z,12.91
2023-04-27T08:13:35.596Z,12.90
2023-04-27T08:15:08.680Z,12.88
2023-04-27T08:16:44.347Z,12.91
2023-04-27T08:18:18.288Z,12.85
2023-04-27T08:19:50.429Z,12.89
2023-04-27T08:21:22.561Z,12.86
2023-04-27T08:22:55.145Z,12.84
2023-04-27T08:24:27.324Z,12.86
2023-04-27T08:25:59.651Z,12.74
2023-04-27T08:27:31.947Z,12.78
2023-04-27T08:29:15.332Z,12.71
2023-04-27T08:30:56.240Z,12.80
2023-04-27T08:32:28.866Z,12.82
2023-04-27T08:34:01.041Z,12.81
2023-04-27T08:35:33.263Z,12.90
2023-04-27T08:37:05.495Z,12.90
2023-04-27T08:38:37.595Z,12.99
2023-04-27T08:40:11.347Z,13.01
2023-04-27T08:41:44.360Z,13.00
2023-04-27T08:43:16.752Z,13.09
2023-04-27T08:44:49.017Z,13.14
2023-04-27T08:46:22.252Z,13.22
2023-04-27T08:47:54.598Z,13.23
2023-04-27T08:49:27.169Z,13.21
2023-04-27T08:51:00.276Z,13.17
2023-04-27T08:52:32.753Z,13.22
2023-04-27T08:54:05.021Z,13.24
2023-04-27T08:55:37.200Z,13.29
2023-04-27T08:57:13.765Z,13.35
2023-04-27T08:58:46.022Z,13.34
2023-04-27T09:00:19.608Z,13.22
2023-04-27T09:01:51.811Z,13.15
2023-04-27T09:03:27.626Z,13.01
2023-04-27T09:05:00.109Z,13.16
2023-04-27T09:06:34.322Z,13.22
2023-04-27T09:08:08.797Z,13.34
2023-04-27T09:09:40.907Z,13.38
2023-04-27T09:11:17.305Z,13.48
2023-04-27T09:12:58.937Z,13.52
2023-04-27T09:14:35.715Z,13.53
2023-04-27T09:16:07.933Z,13.64
2023-04-27T09:17:40.147Z,13.73
2023-04-27T09:19:12.572Z,13.80
2023-04-27T09:20:49.260Z,13.91
2023-04-27T09:22:21.519Z,13.89
2023-04-27T09:23:54.214Z,13.95
2023-04-27T09:25:33.864Z,13.90
2023-04-27T09:27:07.822Z,13.97
2023-04-27T09:28:40.875Z,13.97
2023-04-27T09:30:14.737Z,14.09
2023-04-27T09:31:46.845Z,14.09
2023-04-27T09:33:32.865Z,14.17
2023-04-27T09:35:08.175Z,14.24
2023-04-27T09:36:41.045Z,14.18
2023-04-27T09:38:15.325Z,14.11
2023-04-27T09:39:48.630Z,14.04
2023-04-27T09:41:22.151Z,14.02
2023-04-27T09:43:04.152Z,14.07
2023-04-27T09:44:36.815Z,14.13
2023-04-27T09:46:09.170Z,14.01
2023-04-27T09:47:41.717Z,13.97
2023-04-27T09:49:14.636Z,14.05
2023-04-27T09:50:47.677Z,13.92
2023-04-27T09:53:57.791Z,13.94
2023-04-27T09:55:34.961Z,14.00
2023-04-27T09:57:56.471Z,14.04
2023-04-27T09:59:55.399Z,13.93
2023-04-27T10:01:48.811Z,13.89
2023-04-27T10:03:43.573Z,13.93
2023-04-27T10:05:51.959Z,13.81
2023-04-27T10:07:27.450Z,13.86
2023-04-27T10:08:59.795Z,13.89
2023-04-27T10:10:43.030Z,13.93
2023-04-27T10:12:29.156Z,13.97
2023-04-27T10:14:11.453Z,13.90
2023-04-27T10:15:43.679Z,13.90
2023-04-27T10:17:16.596Z,13.96
2023-04-27T10:18:57.494Z,14.01
2023-04-27T10:20:34.300Z,13.92
2023-04-27T10:22:08.383Z,13.86
2023-04-27T10:23:48.815Z,13.81
2023-04-27T10:25:24.350Z,13.79
2023-04-27T10:27:02.083Z,13.81
2023-04-27T10:28:40.467Z,13.85
2023-04-27T10:30:17.861Z,13.83
2023-04-27T10:31:50.381Z,13.81
2023-04-27T10:33:23.612Z,13.82
2023-04-27T10:35:09.833Z,13.81
2023-04-27T10:36:42.709Z,13.74
2023-04-27T10:38:24.048Z,13.82
2023-04-27T10:40:08.353Z,13.92
2023-04-27T10:41:57.079Z,13.92
2023-04-27T10:43:31.130Z,13.89
2023-04-27T10:45:03.436Z,13.86
2023-04-27T10:46:36.752Z,13.87
2023-04-27T10:48:08.959Z,13.99
2023-04-27T10:49:41.494Z,13.93
2023-04-27T10:51:18.125Z,13.91
2023-04-27T10:52:50.668Z,13.87
2023-04-27T10:54:27.575Z,13.93
2023-04-27T10:55:59.662Z,13.94
2023-04-27T10:57:31.916Z,13.79
2023-04-27T10:59:05.653Z,13.76
2023-04-27T11:00:44.354Z,13.89
2023-04-27T11:02:17.191Z,13.96
2023-04-27T11:03:56.182Z,14.05
2023-04-27T11:05:33.765Z,14.07
2023-04-27T11:07:09.663Z,14.06
2023-04-27T11:08:45.916Z,14.00
2023-04-27T11:10:19.459Z,14.00
2023-04-27T11:11:51.631Z,13.97
2023-04-27T11:13:25.640Z,14.08
2023-04-27T11:14:59.181Z,14.16
2023-04-27T11:16:33.269Z,14.22
2023-04-27T11:18:06.709Z,14.30
2023-04-27T11:19:46.323Z,14.35
2023-04-27T11:21:20.824Z,14.33
2023-04-27T11:22:52.970Z,14.33
2023-04-27T11:24:25.109Z,14.38
2023-04-27T11:25:57.538Z,14.43
2023-04-27T11:27:42.657Z,14.51
2023-04-27T11:29:15.990Z,14.56
2023-04-27T11:30:49.819Z,14.63
2023-04-27T11:32:23.462Z,14.66
2023-04-27T11:33:56.332Z,14.66
2023-04-27T11:35:35.384Z,14.73
2023-04-27T11:37:18.389Z,14.91
2023-04-27T11:38:50.990Z,15.07
2023-04-27T11:40:24.568Z,15.12
2023-04-27T11:43:35.805Z,15.50
2023-04-27T11:45:11.231Z,15.61
2023-04-27T11:46:45.424Z,15.68
2023-04-27T11:48:17.636Z,15.61
2023-04-27T11:49:53.310Z,15.52
2023-04-27T11:51:25.634Z,15.47
2023-04-27T11:53:01.486Z,15.33
2023-04-27T11:54:33.660Z,15.34
2023-04-27T11:56:11.387Z,15.36
2023-04-27T11:57:43.754Z,15.43
2023-04-27T11:59:21.336Z,15.59
2023-04-27T12:00:53.410Z,15.57
2023-04-27T12:02:25.856Z,15.48
2023-04-27T12:04:00.740Z,15.54
2023-04-27T12:05:35.407Z,15.58
2023-04-27T12:07:07.626Z,15.70
2023-04-27T12:08:39.761Z,15.67
2023-04-27T12:10:12.335Z,15.56
2023-04-27T12:11:44.625Z,15.58
2023-04-27T12:13:16.967Z,15.68
2023-04-27T12:14:49.781Z,15.90
2023-04-27T12:16:25.116Z,16.18
2023-04-27T12:17:57.433Z,16.38
2023-04-27T12:19:30.922Z,16.38
2023-04-27T12:21:03.575Z,16.42
2023-04-27T12:22:35.977Z,16.34
2023-04-27T12:24:08.108Z,16.33
2023-04-27T12:25:41.606Z,16.25
2023-04-27T12:27:13.676Z,16.11
2023-04-27T12:28:46.040Z,15.99
2023-04-27T12:30:18.499Z,15.87
2023-04-27T12:31:51.833Z,15.74
2023-04-27T12:33:23.898Z,15.71
2023-04-27T12:34:56.049Z,15.56
2023-04-27T12:36:29.077Z,15.46
2023-04-27T12:38:01.651Z,15.39
2023-04-27T12:39:33.840Z,15.41
2023-04-27T12:41:06.104Z,15.38
2023-04-27T12:42:38.227Z,15.37
2023-04-27T12:44:10.437Z,15.35
2023-04-27T12:45:42.912Z,15.36
2023-04-27T12:47:27.812Z,15.61
2023-04-27T12:49:07.911Z,15.79
2023-04-27T12:50:40.069Z,15.77
2023-04-27T12:52:12.160Z,15.82
2023-04-27T12:53:44.307Z,16.07
2023-04-27T12:55:31.323Z,16.19
2023-04-27T12:57:07.375Z,16.12
2023-04-27T12:58:40.436Z,15.96
2023-04-27T13:00:13.975Z,15.93
2023-04-27T13:01:46.235Z,15.92
2023-04-27T13:03:18.547Z,15.83
2023-04-27T13:04:50.784Z,15.65
2023-04-27T13:06:23.316Z,15.64
2023-04-27T13:07:55.520Z,15.54
2023-04-27T13:09:30.855Z,15.36
2023-04-27T13:11:03.095Z,15.30
2023-04-27T13:12:37.858Z,15.26
2023-04-27T13:14:13.451Z,15.10
2023-04-27T13:15:46.854Z,15.17
2023-04-27T13:17:19.024Z,15.18
2023-04-27T13:18:52.720Z,15.18
2023-04-27T13:20:25.020Z,15.18
2023-04-27T13:21:57.208Z,15.13
2023-04-27T13:23:30.516Z,15.17
2023-04-27T13:25:02.439Z,15.34
2023-04-27T13:26:34.632Z,15.34
2023-04-27T13:28:06.848Z,15.27
2023-04-27T13:29:39.082Z,15.28
2023-04-27T13:31:11.497Z,15.29
2023-04-27T13:32:43.677Z,15.35
2023-04-27T13:34:16.237Z,15.29
2023-04-27T13:35:48.769Z,15.26
2023-04-27T13:37:20.897Z,15.31
2023-04-27T13:38:53.061Z,15.30
2023-04-27T13:40:25.181Z,15.29
2023-04-27T13:41:58.019Z,15.32
2023-04-27T13:43:31.629Z,15.38
2023-04-27T13:45:05.169Z,15.38
2023-04-27T13:46:37.922Z,15.32
2023-04-27T13:48:10.042Z,15.37
2023-04-27T13:49:42.176Z,15.29
2023-04-27T13:51:14.355Z,15.22
2023-04-27T13:52:46.741Z,15.28
2023-04-27T13:54:18.876Z,15.43
2023-04-27T13:55:51.175Z,15.44
2023-04-27T13:57:23.344Z,15.64
2023-04-27T13:58:55.517Z,15.77
2023-04-27T14:00:29.185Z,15.96
2023-04-27T14:02:01.470Z,15.97
2023-04-27T14:03:34.535Z,16.15
2023-04-27T14:05:07.489Z,16.22
2023-04-27T14:06:39.671Z,16.26
2023-04-27T14:08:12.041Z,16.20
2023-04-27T14:09:44.196Z,16.08
2023-04-27T14:11:16.678Z,16.05
2023-04-27T14:12:49.151Z,15.99
2023-04-27T14:14:21.343Z,15.89
2023-04-27T14:15:53.545Z,15.78
2023-04-27T14:17:26.082Z,16.07
2023-04-27T14:18:58.279Z,16.22
2023-04-27T14:20:30.882Z,16.32
2023-04-27T14:22:04.968Z,16.21
2023-04-27T14:23:37.113Z,16.24
2023-04-27T14:25:09.587Z,16.26
2023-04-27T14:26:44.489Z,16.21
2023-04-27T14:28:16.918Z,15.96
2023-04-27T14:29:49.090Z,16.03
2023-04-27T14:31:21.821Z,16.06
2023-04-27T14:32:54.343Z,15.99
2023-04-27T14:34:26.571Z,16.07
2023-04-27T14:35:58.791Z,16.10
2023-04-27T14:37:30.970Z,16.14
2023-04-27T14:39:04.865Z,16.27
2023-04-27T14:42:15.554Z,16.14
2023-04-27T14:43:49.230Z,16.26
2023-04-27T14:45:24.055Z,16.12
2023-04-27T14:46:56.573Z,15.91
2023-04-27T14:48:31.790Z,16.05
2023-04-27T14:50:04.273Z,15.93
2023-04-27T14:51:36.473Z,15.86
2023-04-27T14:53:08.619Z,15.88
2023-04-27T14:54:42.063Z,15.88
2023-04-27T14:56:14.168Z,15.91
2023-04-27T14:57:46.263Z,15.98
2023-04-27T14:59:18.487Z,15.96
2023-04-27T15:00:51.583Z,15.83
2023-04-27T15:02:23.804Z,15.62
2023-04-27T15:03:57.065Z,15.63
2023-04-27T15:05:29.063Z,15.56
2023-04-27T15:07:01.874Z,15.43
2023-04-27T15:08:34.553Z,15.40
2023-04-27T15:11:39.480Z,15.31
2023-04-27T15:13:12.394Z,15.28
2023-04-27T15:14:44.487Z,15.29
2023-04-27T15:16:16.900Z,15.16
2023-04-27T15:17:49.042Z,15.21
2023-04-27T15:19:21.230Z,15.27
2023-04-27T15:20:56.842Z,15.32
2023-04-27T15:22:29.011Z,15.43
2023-04-27T15:24:01.233Z,15.50
2023-04-27T15:25:33.560Z,15.48
2023-04-27T15:27:07.213Z,15.46
2023-04-27T15:28:41.320Z,15.51
2023-04-27T15:30:14.950Z,15.49
2023-04-27T15:31:47.764Z,15.27
2023-04-27T15:33:20.097Z,15.22
2023-04-27T15:34:52.309Z,15.08
2023-04-27T15:36:28.908Z,15.08
2023-04-27T15:38:01.217Z,15.10
2023-04-27T15:39:33.352Z,15.10
2023-04-27T15:41:05.639Z,15.13
2023-04-27T15:42:37.875Z,15.09
2023-04-27T15:44:10.056Z,15.09
2023-04-27T15:45:42.756Z,15.00
2023-04-27T15:47:15.772Z,15.00
2023-04-27T15:48:47.876Z,14.92
2023-04-27T15:50:20.342Z,14.92
2023-04-27T15:51:52.463Z,14.70
2023-04-27T15:53:24.612Z,14.67
2023-04-27T15:54:56.975Z,14.71
2023-04-27T15:56:30.755Z,14.59
2023-04-27T15:58:03.418Z,14.67
2023-04-27T18:41:31.900Z,12.86
2023-04-27T18:43:04.220Z,12.89
2023-04-27T18:44:36.902Z,12.87
2023-04-27T18:46:09.286Z,12.81
2023-04-27T18:47:41.545Z,12.82
2023-04-27T18:49:14.045Z,12.83
2023-04-27T18:50:46.415Z,12.78
2023-04-27T18:52:18.631Z,12.79
2023-04-27T18:53:50.842Z,12.70
2023-04-27T18:55:23.151Z,12.69
2023-04-27T18:56:55.383Z,12.68
2023-04-27T18:58:27.545Z,12.68
2023-04-27T19:00:00.648Z,12.66
2023-04-27T19:01:33.107Z,12.65
2023-04-27T19:03:06.346Z,12.65
2023-04-27T19:04:39.689Z,12.66
2023-04-27T19:06:13.775Z,12.70
2023-04-27T19:07:46.369Z,12.60
2023-04-27T19:09:19.712Z,12.55
2023-04-27T19:10:51.850Z,12.62
2023-04-27T19:12:24.865Z,12.56
2023-04-27T19:13:57.436Z,12.58
2023-04-27T19:15:29.704Z,12.57
2023-04-27T19:17:02.376Z,12.49
2023-04-27T19:18:35.068Z,12.48
2023-04-27T19:20:09.180Z,12.46
2023-04-27T19:21:42.413Z,12.32
2023-04-27T19:23:14.672Z,12.34
2023-04-27T19:24:46.913Z,12.36
2023-04-27T19:26:19.046Z,12.40
2023-04-27T19:27:51.790Z,12.40
2023-04-27T19:29:24.477Z,12.38
2023-04-27T19:30:56.734Z,12.34
2023-04-27T19:32:29.091Z,12.37
2023-04-27T19:34:04.132Z,12.32
2023-04-27T19:35:36.740Z,12.28
2023-04-27T19:37:08.916Z,12.24
2023-04-27T19:38:43.701Z,12.31
2023-04-27T19:40:16.213Z,12.23
2023-04-27T19:41:48.414Z,12.21
2023-04-27T19:43:20.742Z,12.20
2023-04-27T19:44:53.036Z,12.10
2023-04-27T19:46:25.374Z,12.07
2023-04-27T19:47:57.704Z,12.09
2023-04-27T19:49:33.587Z,12.14
2023-04-27T19:51:09.281Z,12.17
2023-04-27T19:52:41.561Z,12.11
2023-04-27T19:54:13.831Z,12.08
2023-04-27T19:55:46.138Z,11.99
2023-04-27T19:57:18.324Z,11.98
2023-04-27T19:58:50.643Z,11.98
2023-04-27T20:00:22.895Z,12.02
2023-04-27T20:01:55.175Z,12.02
2023-04-27T20:03:27.625Z,11.99
2023-04-27T20:05:00.270Z,11.99
2023-04-27T20:06:33.734Z,11.94
2023-04-27T20:08:06.596Z,11.94
2023-04-27T20:09:38.800Z,11.97
2023-04-27T20:11:13.750Z,11.92
2023-04-27T20:12:56.073Z,11.89
2023-04-27T20:14:31.621Z,11.89
2023-04-27T20:16:05.487Z,11.89
2023-04-27T20:17:37.811Z,11.87
2023-04-27T20:19:11.261Z,11.89
2023-04-27T20:20:43.306Z,11.89
2023-04-27T20:22:15.515Z,11.79
2023-04-27T20:23:50.959Z,11.75
2023-04-27T20:25:23.406Z,11.73
2023-04-27T20:26:55.610Z,11.73
2023-04-27T20:28:30.258Z,11.73
2023-04-27T20:30:02.892Z,11.70
2023-04-27T20:31:35.175Z,11.67
2023-04-27T20:33:07.468Z,11.64
2023-04-27T20:34:39.802Z,11.61
2023-04-27T20:36:17.251Z,11.51
2023-04-27T20:37:50.619Z,11.57
2023-04-27T20:39:23.084Z,11.58
2023-04-27T20:40:55.336Z,11.57
2023-04-27T20:42:27.668Z,11.53
2023-04-27T20:44:00.827Z,11.53
2023-04-27T20:45:33.461Z,11.52
2023-04-27T20:47:06.358Z,11.39
2023-04-27T20:48:38.793Z,11.42
2023-04-27T20:50:11.232Z,11.39
2023-04-27T20:51:43.406Z,11.31
2023-04-27T20:53:15.785Z,11.32
2023-04-27T20:54:47.980Z,11.30
2023-04-27T20:56:20.632Z,11.27
2023-04-27T20:57:52.976Z,11.23
2023-04-27T20:59:25.191Z,11.28
2023-04-27T21:00:57.468Z,11.26
2023-04-27T21:02:29.728Z,11.22
2023-04-27T21:04:01.998Z,11.21
2023-04-27T21:05:34.224Z,11.21
2023-04-27T21:07:06.454Z,11.18
2023-04-27T21:08:38.959Z,11.20
2023-04-27T21:10:12.388Z,11.13
2023-04-27T21:11:44.385Z,11.10
2023-04-27T21:13:16.656Z,10.97
2023-04-27T21:14:48.819Z,11.01
2023-04-27T21:16:22.060Z,11.04
2023-04-27T21:19:26.319Z,10.91
2023-04-27T21:20:58.875Z,10.93
2023-04-27T21:22:31.145Z,10.85
2023-04-27T21:24:19.056Z,10.86
2023-04-27T21:25:51.286Z,10.78
2023-04-27T21:27:23.564Z,10.83
2023-04-27T21:28:56.268Z,10.79
2023-04-27T21:30:30.872Z,10.77
2023-04-27T21:32:03.251Z,10.72
2023-04-27T21:33:35.399Z,10.78
2023-04-27T21:35:08.447Z,10.82
2023-04-27T21:36:40.589Z,10.81
2023-04-27T21:38:12.843Z,10.82
2023-04-27T21:39:44.894Z,10.84
2023-04-27T21:41:17.816Z,10.85
2023-04-27T21:42:59.151Z,10.82
2023-04-27T21:44:31.515Z,10.74
2023-04-27T21:46:03.664Z,10.77
2023-04-27T21:47:36.084Z,10.70
2023-04-27T21:49:08.211Z,10.71
2023-04-27T21:50:40.299Z,10.74
2023-04-27T21:52:12.356Z,10.70
2023-04-27T21:53:44.587Z,10.73
2023-04-27T21:55:16.743Z,10.70
2023-04-27T21:56:48.934Z,10.66
2023-04-27T21:58:21.472Z,10.68
2023-04-27T21:59:53.579Z,10.69
2023-04-27T22:01:27.546Z,10.66
2023-04-27T22:03:00.083Z,10.68
2023-04-27T22:04:34.954Z,10.69
2023-04-27T22:06:07.979Z,10.61
2023-04-27T22:07:40.176Z,10.59
2023-04-27T22:09:12.660Z,10.62
2023-04-27T22:10:45.383Z,10.60
2023-04-27T22:12:17.514Z,10.63
2023-04-27T22:13:49.627Z,10.59
2023-04-27T22:15:21.962Z,10.57
2023-04-27T22:16:54.096Z,10.54
2023-04-27T22:18:26.404Z,10.52
2023-04-27T22:19:58.915Z,10.56
2023-04-27T22:21:31.629Z,10.53
2023-04-27T22:23:03.904Z,10.57
2023-04-27T22:24:36.027Z,10.56
2023-04-27T22:26:09.017Z,10.50
2023-04-27T22:27:45.105Z,10.55
2023-04-27T22:29:17.689Z,10.58
2023-04-27T22:30:49.786Z,10.57
2023-04-27T22:32:22.035Z,10.59
2023-04-27T22:33:54.248Z,10.61
2023-04-27T22:35:27.932Z,10.53
2023-04-27T22:37:00.514Z,10.58
2023-04-27T22:38:32.819Z,10.58
2023-04-27T22:40:06.333Z,10.54
2023-04-27T22:41:38.388Z,10.53
2023-04-27T22:43:10.529Z,10.52
2023-04-27T22:44:42.673Z,10.51
2023-04-27T22:46:14.902Z,10.52
2023-04-27T22:47:47.145Z,10.44
2023-04-27T22:49:19.421Z,10.46
2023-04-27T22:50:51.550Z,10.47
2023-04-27T22:52:25.110Z,10.46
2023-04-27T22:53:57.188Z,10.47
2023-04-27T22:55:29.381Z,10.47